Time;durP1;ratioP1;P1;durP2;ratioP2;P2;SDS_P1;SDS_P2;PMS_P1;PMS_P2;Temp;Humidity;BMP_temperature;BMP_pressure;BME280_temperature;BME280_humidity;BME280_pressure;Samples;Min_cycle;Max_cycle;Signal;HPM_P1;HPM_P2
2022/12/19 00:01:25;;;;;;;54.73;27.80;;;-4.70;99.90;;;;;;4996332;28;20233;-77
2022/12/19 00:03:54;;;;;;;56.77;28.90;;;-4.70;99.90;;;;;;4996118;28;20682;-78
2022/12/19 00:06:23;;;;;;;55.80;29.33;;;-4.70;99.90;;;;;;5001730;28;20234;-81
2022/12/19 00:08:52;;;;;;;56.30;26.97;;;-4.70;99.90;;;;;;4997820;28;20195;-79
2022/12/19 00:11:23;;;;;;;56.17;28.07;;;-4.60;99.90;;;;;;5002818;28;20199;-82
2022/12/19 00:13:50;;;;;;;53.40;26.50;;;-4.60;99.90;;;;;;5010237;28;20203;-82
2022/12/19 00:16:19;;;;;;;56.37;27.10;;;-4.50;99.90;;;;;;5010456;28;20235;-82
2022/12/19 00:18:47;;;;;;;53.43;27.80;;;-4.50;99.90;;;;;;5008383;28;20205;-81
2022/12/19 00:21:16;;;;;;;55.93;28.73;;;-4.50;99.90;;;;;;5008639;28;20210;-82
2022/12/19 00:23:44;;;;;;;53.03;26.40;;;-4.50;99.90;;;;;;5008940;28;20204;-81
2022/12/19 00:26:16;;;;;;;55.10;26.77;;;-4.50;99.90;;;;;;5011315;28;20761;-83
2022/12/19 00:28:44;;;;;;;52.50;27.43;;;-4.50;99.90;;;;;;5013376;28;20212;-82
2022/12/19 00:31:19;;;;;;;53.27;27.83;;;-4.40;99.90;;;;;;5015396;28;20203;-81
2022/12/19 00:33:46;;;;;;;57.97;27.43;;;-4.50;99.90;;;;;;5015139;28;20199;-82
2022/12/19 00:36:15;;;;;;;52.10;26.50;;;-4.50;99.90;;;;;;5015086;28;20204;-81
2022/12/19 00:38:41;;;;;;;54.83;27.13;;;-4.50;99.90;;;;;;5014254;28;20206;-82
2022/12/19 00:41:11;;;;;;;53.50;27.13;;;-4.40;99.90;;;;;;5014095;28;20228;-82
2022/12/19 00:43:39;;;;;;;55.27;27.00;;;-4.50;99.90;;;;;;5013628;28;20232;-80
2022/12/19 00:46:08;;;;;;;55.37;26.57;;;-4.40;99.90;;;;;;5014994;28;20234;-81
2022/12/19 00:48:35;;;;;;;52.20;26.17;;;-4.40;99.90;;;;;;5014433;28;20203;-81
2022/12/19 00:51:03;;;;;;;54.00;27.13;;;-4.40;99.90;;;;;;5013870;28;20203;-82
2022/12/19 00:53:30;;;;;;;50.10;25.47;;;-4.50;99.90;;;;;;5013279;28;20204;-81
2022/12/19 00:55:57;;;;;;;59.93;28.27;;;-4.40;99.90;;;;;;5012932;28;20200;-81
2022/12/19 00:58:25;;;;;;;55.00;27.73;;;-4.40;99.90;;;;;;5012567;28;20219;-80
2022/12/19 01:00:52;;;;;;;50.93;26.77;;;-4.40;99.90;;;;;;5012603;28;20211;-81
2022/12/19 01:03:18;;;;;;;53.23;27.43;;;-4.40;99.90;;;;;;5012324;28;20195;-80
2022/12/19 01:05:45;;;;;;;54.13;26.23;;;-4.30;99.90;;;;;;5012757;28;20203;-81
2022/12/19 01:08:12;;;;;;;58.50;28.50;;;-4.30;99.90;;;;;;5012586;28;20258;-80
2022/12/19 01:10:45;;;;;;;54.03;27.70;;;-4.40;99.90;;;;;;5013808;28;20214;-82
2022/12/19 01:13:10;;;;;;;50.17;25.90;;;-4.30;99.90;;;;;;5014227;28;20199;-82
2022/12/19 01:15:41;;;;;;;55.10;27.63;;;-4.30;99.90;;;;;;5011987;28;20229;-81
2022/12/19 01:18:09;;;;;;;55.30;28.93;;;-4.30;99.90;;;;;;5014008;28;20203;-82
2022/12/19 01:20:39;;;;;;;57.13;28.93;;;-4.30;99.90;;;;;;5012723;28;20616;-81
2022/12/19 01:23:05;;;;;;;53.40;27.33;;;-4.30;99.90;;;;;;5012839;28;20235;-81
2022/12/19 01:25:33;;;;;;;57.13;28.87;;;-4.30;99.90;;;;;;5013219;28;20228;-81
2022/12/19 01:28:01;;;;;;;52.43;29.00;;;-4.30;99.90;;;;;;5013144;28;20226;-81
2022/12/19 01:30:29;;;;;;;56.37;29.17;;;-4.20;99.90;;;;;;5013032;28;20664;-81
2022/12/19 01:32:57;;;;;;;56.60;28.77;;;-4.20;99.90;;;;;;5016521;28;20204;-81
2022/12/19 01:35:25;;;;;;;56.07;28.13;;;-4.20;99.90;;;;;;5014303;28;20196;-82
2022/12/19 01:37:54;;;;;;;59.73;29.77;;;-4.20;99.90;;;;;;5010196;28;20211;-81
2022/12/19 01:40:22;;;;;;;60.47;30.20;;;-4.20;99.90;;;;;;5011779;28;20225;-81
2022/12/19 01:42:49;;;;;;;58.00;29.20;;;-4.20;99.90;;;;;;5013726;28;20195;-81
2022/12/19 01:45:39;;;;;;;54.60;28.37;;;-4.20;99.90;;;;;;5015351;28;20199;-82
2022/12/19 01:48:18;;;;;;;53.10;27.93;;;-4.30;99.90;;;;;;5017613;28;20207;-82
2022/12/19 01:50:52;;;;;;;52.43;26.93;;;-4.30;99.90;;;;;;5018526;28;20219;-83
2022/12/19 01:53:21;;;;;;;60.57;29.10;;;-4.30;99.90;;;;;;5015816;28;20210;-81
2022/12/19 01:55:48;;;;;;;57.47;28.33;;;-4.30;99.90;;;;;;5012915;28;20204;-82
2022/12/19 01:58:15;;;;;;;58.50;29.07;;;-4.40;99.90;;;;;;5011901;28;20266;-82
2022/12/19 02:00:44;;;;;;;56.80;29.57;;;-4.30;99.90;;;;;;5011278;28;20208;-81
2022/12/19 02:03:18;;;;;;;56.20;29.10;;;-4.30;99.90;;;;;;5011537;28;20231;-81
2022/12/19 02:05:45;;;;;;;59.83;29.40;;;-4.30;99.90;;;;;;5016351;28;20276;-81
2022/12/19 02:08:12;;;;;;;59.50;29.57;;;-4.30;99.90;;;;;;5017385;28;20239;-82
2022/12/19 02:10:39;;;;;;;59.17;29.13;;;-4.30;99.90;;;;;;5017176;28;20199;-82
2022/12/19 02:13:06;;;;;;;58.30;28.93;;;-4.20;99.90;;;;;;5019270;28;20209;-82
2022/12/19 02:15:39;;;;;;;56.47;27.60;;;-4.20;99.90;;;;;;5021419;28;20219;-82
2022/12/19 02:18:16;;;;;;;57.97;28.73;;;-4.10;99.90;;;;;;5021207;28;20212;-82
2022/12/19 02:21:12;;;;;;;57.47;29.27;;;-4.10;99.90;;;;;;5020815;28;20199;-82
2022/12/19 02:24:12;;;;;;;58.17;27.93;;;-4.10;99.90;;;;;;5019041;28;20282;-82
2022/12/19 02:27:02;;;;;;;57.73;28.03;;;-4.00;99.90;;;;;;5019551;28;20203;-82
2022/12/19 02:30:07;;;;;;;58.27;29.17;;;-4.10;99.90;;;;;;5019007;28;20203;-83
2022/12/19 02:32:45;;;;;;;53.70;26.80;;;-4.00;99.90;;;;;;4989986;28;20195;-82
2022/12/19 02:35:23;;;;;;;51.23;27.27;;;-4.00;99.90;;;;;;5017569;28;20239;-82
2022/12/19 02:37:56;;;;;;;54.30;26.93;;;-4.00;99.90;;;;;;5018017;28;20263;-82
2022/12/19 02:40:29;;;;;;;55.33;28.90;;;-4.00;99.90;;;;;;5017321;28;20636;-82
2022/12/19 02:42:59;;;;;;;53.17;27.33;;;-3.90;99.90;;;;;;5018206;28;20203;-82
2022/12/19 02:45:29;;;;;;;60.07;30.10;;;-3.90;99.90;;;;;;5017257;28;20204;-82
2022/12/19 02:48:00;;;;;;;58.50;28.77;;;-3.90;99.90;;;;;;5018575;28;20223;-82
2022/12/19 02:50:37;;;;;;;56.93;29.37;;;-3.90;99.90;;;;;;5017298;28;20268;-82
2022/12/19 02:53:03;;;;;;;58.93;29.03;;;-3.90;99.90;;;;;;5016232;28;20208;-81
2022/12/19 02:55:32;;;;;;;56.67;28.87;;;-3.80;99.90;;;;;;5015957;28;20199;-82
2022/12/19 02:58:34;;;;;;;54.00;28.13;;;-3.80;99.90;;;;;;5015492;28;20231;-81
2022/12/19 03:01:10;;;;;;;63.50;30.47;;;-3.80;99.90;;;;;;5012981;28;20234;-81
2022/12/19 03:03:51;;;;;;;56.97;28.27;;;-3.80;99.90;;;;;;5017264;28;20199;-82
2022/12/19 03:06:24;;;;;;;58.80;30.37;;;-3.70;99.90;;;;;;5017301;28;20199;-82
2022/12/19 03:09:00;;;;;;;55.20;27.70;;;-3.70;99.90;;;;;;5016892;28;20694;-82
2022/12/19 03:11:31;;;;;;;55.43;28.43;;;-3.70;99.90;;;;;;5020523;28;20251;-82
2022/12/19 03:14:00;;;;;;;59.10;29.67;;;-3.70;99.90;;;;;;5020677;28;20201;-82
2022/12/19 03:16:27;;;;;;;57.90;29.33;;;-3.70;99.90;;;;;;5020313;28;20263;-83
2022/12/19 03:18:57;;;;;;;61.07;30.00;;;-3.70;99.90;;;;;;5020511;28;20209;-82
2022/12/19 03:21:29;;;;;;;52.13;28.00;;;-3.60;99.90;;;;;;5019530;28;20205;-82
2022/12/19 03:23:57;;;;;;;55.07;27.80;;;-3.60;99.90;;;;;;5019762;28;20211;-82
2022/12/19 03:26:31;;;;;;;55.67;28.87;;;-3.60;99.90;;;;;;5015718;28;20258;-81
2022/12/19 03:29:05;;;;;;;56.37;30.03;;;-3.60;99.90;;;;;;5015382;28;20228;-81
2022/12/19 03:31:33;;;;;;;58.17;28.80;;;-3.60;99.90;;;;;;5019799;28;20187;-82
2022/12/19 03:34:06;;;;;;;58.10;29.80;;;-3.60;99.90;;;;;;5019544;28;20188;-82
2022/12/19 03:36:43;;;;;;;57.70;29.07;;;-3.70;99.90;;;;;;5017387;28;20235;-82
2022/12/19 03:39:12;;;;;;;52.80;28.40;;;-3.70;99.90;;;;;;5015866;28;20639;-82
2022/12/19 03:44:28;;;;;;;59.73;29.43;;;-3.70;99.90;;;;;;5011889;28;20208;-82
2022/12/19 03:46:59;;;;;;;55.67;29.03;;;-3.70;99.90;;;;;;5012239;28;20204;-79
2022/12/19 03:49:27;;;;;;;57.60;29.63;;;-3.70;99.90;;;;;;5013296;28;20200;-82
2022/12/19 03:52:03;;;;;;;58.23;28.67;;;-3.60;99.90;;;;;;5013397;28;20537;-82
2022/12/19 03:54:34;;;;;;;58.83;29.47;;;-3.60;99.90;;;;;;5014255;28;20200;-82
2022/12/19 03:57:07;;;;;;;59.53;30.27;;;-3.50;99.90;;;;;;5013597;28;20204;-82
2022/12/19 03:59:39;;;;;;;57.03;31.17;;;-3.50;99.90;;;;;;5014579;28;20232;-82
2022/12/19 04:02:08;;;;;;;58.83;30.17;;;-3.50;99.90;;;;;;5013690;28;20205;-81
2022/12/19 04:04:39;;;;;;;58.27;29.57;;;-3.50;99.90;;;;;;5014732;28;20225;-81
2022/12/19 04:07:07;;;;;;;54.53;29.70;;;-3.50;99.90;;;;;;5015132;28;20205;-81
2022/12/19 04:09:36;;;;;;;57.33;29.73;;;-3.50;99.90;;;;;;5012691;28;20608;-81
2022/12/19 04:12:05;;;;;;;61.57;32.27;;;-3.50;99.90;;;;;;5014066;28;20610;-80
2022/12/19 04:14:36;;;;;;;56.93;28.97;;;-3.50;99.90;;;;;;5014966;28;20204;-81
2022/12/19 04:17:09;;;;;;;57.33;29.30;;;-3.50;99.90;;;;;;5012782;28;20210;-80
2022/12/19 04:19:43;;;;;;;53.20;28.23;;;-3.50;99.90;;;;;;5011565;28;20204;-80
2022/12/19 04:22:16;;;;;;;53.83;28.57;;;-3.50;99.90;;;;;;5013284;28;20200;-81
2022/12/19 04:24:45;;;;;;;53.37;29.47;;;-3.50;99.90;;;;;;5012065;28;20212;-81
2022/12/19 04:27:13;;;;;;;54.77;29.20;;;-3.40;99.90;;;;;;5011831;28;20201;-81
2022/12/19 04:29:41;;;;;;;60.03;30.33;;;-3.40;99.90;;;;;;5012183;28;20206;-82
2022/12/19 04:32:10;;;;;;;60.30;29.90;;;-3.40;99.90;;;;;;5013322;28;20223;-82
2022/12/19 04:34:39;;;;;;;56.30;29.30;;;-3.40;99.90;;;;;;5012101;28;20655;-82
2022/12/19 04:37:14;;;;;;;60.53;30.97;;;-3.40;99.90;;;;;;5012807;28;20232;-82
2022/12/19 04:39:40;;;;;;;55.83;28.83;;;-3.40;99.90;;;;;;5013047;28;20301;-82
2022/12/19 04:42:07;;;;;;;53.07;28.77;;;-3.30;99.90;;;;;;5014277;28;20204;-81
2022/12/19 04:44:34;;;;;;;58.73;29.70;;;-3.40;99.90;;;;;;5013698;28;20251;-82
2022/12/19 04:47:01;;;;;;;54.47;28.53;;;-3.40;99.90;;;;;;5013297;28;20228;-82
2022/12/19 04:49:31;;;;;;;57.07;30.33;;;-3.40;99.90;;;;;;5013263;28;20205;-82
2022/12/19 04:52:00;;;;;;;56.97;29.77;;;-3.30;99.90;;;;;;5012576;28;20204;-81
2022/12/19 04:54:26;;;;;;;59.77;30.00;;;-3.30;99.90;;;;;;5013465;28;20199;-81
2022/12/19 04:56:55;;;;;;;55.50;30.27;;;-3.30;99.90;;;;;;5013017;28;20206;-82
2022/12/19 04:59:21;;;;;;;57.27;30.73;;;-3.20;99.90;;;;;;5012051;28;20637;-82
2022/12/19 05:01:48;;;;;;;56.53;29.37;;;-3.30;99.90;;;;;;5011426;28;20192;-82
2022/12/19 05:04:15;;;;;;;59.40;29.30;;;-3.30;99.90;;;;;;5012589;28;20207;-82
2022/12/19 05:06:42;;;;;;;59.43;31.63;;;-3.20;99.90;;;;;;5013674;28;20261;-82
2022/12/19 05:09:12;;;;;;;52.93;29.70;;;-3.20;99.90;;;;;;5013616;28;20232;-81
2022/12/19 05:11:38;;;;;;;58.23;29.30;;;-3.20;99.90;;;;;;5012457;28;20699;-82
2022/12/19 05:14:05;;;;;;;59.03;30.10;;;-3.20;99.90;;;;;;5012790;28;20223;-82
2022/12/19 05:16:32;;;;;;;59.53;29.87;;;-3.10;99.90;;;;;;5012982;28;20200;-81
2022/12/19 05:18:59;;;;;;;57.17;31.13;;;-3.20;99.90;;;;;;5012904;28;20213;-82
2022/12/19 05:21:26;;;;;;;57.63;30.30;;;-3.10;99.90;;;;;;5011377;28;20569;-82
2022/12/19 05:23:52;;;;;;;53.53;29.30;;;-3.10;99.90;;;;;;5013004;28;20656;-82
2022/12/19 05:26:20;;;;;;;60.80;29.83;;;-3.10;99.90;;;;;;5012553;28;20318;-82
2022/12/19 05:28:47;;;;;;;55.80;29.37;;;-3.10;99.90;;;;;;5012636;28;20291;-83
2022/12/19 05:31:19;;;;;;;57.20;30.10;;;-3.10;99.90;;;;;;5013551;28;20661;-83
2022/12/19 05:33:47;;;;;;;54.83;29.00;;;-3.00;99.90;;;;;;5013407;28;20210;-83
2022/12/19 05:36:15;;;;;;;56.77;29.40;;;-3.00;99.90;;;;;;5012929;28;20209;-82
2022/12/19 05:38:42;;;;;;;55.00;30.00;;;-3.00;99.90;;;;;;5012208;28;20236;-83
2022/12/19 05:41:11;;;;;;;56.50;28.10;;;-3.00;99.90;;;;;;5010676;28;20233;-83
2022/12/19 05:43:39;;;;;;;53.00;27.80;;;-3.00;99.90;;;;;;5012002;28;20205;-81
2022/12/19 05:46:07;;;;;;;55.33;28.43;;;-3.00;99.90;;;;;;5012423;28;20205;-82
2022/12/19 05:48:34;;;;;;;57.00;29.73;;;-3.00;99.90;;;;;;5011814;28;20292;-83
2022/12/19 05:51:01;;;;;;;54.67;28.90;;;-3.00;99.90;;;;;;5011826;28;20226;-83
2022/12/19 05:53:28;;;;;;;62.90;31.37;;;-2.90;99.90;;;;;;5011523;28;20209;-82
2022/12/19 05:56:03;;;;;;;57.00;29.40;;;-2.90;99.90;;;;;;5011285;28;20205;-83
2022/12/19 05:58:30;;;;;;;58.27;30.27;;;-2.90;99.90;;;;;;5010602;28;20271;-83
2022/12/19 06:01:02;;;;;;;55.67;29.17;;;-2.90;99.90;;;;;;5011697;28;20225;-83
2022/12/19 06:03:29;;;;;;;53.13;28.43;;;-2.80;99.90;;;;;;5012443;28;20205;-82
2022/12/19 06:05:56;;;;;;;52.60;28.40;;;-2.90;99.90;;;;;;5012952;28;20196;-83
2022/12/19 06:08:23;;;;;;;54.17;29.23;;;-2.80;99.90;;;;;;5013595;28;20240;-83
2022/12/19 06:10:49;;;;;;;52.03;26.77;;;-2.90;99.90;;;;;;5015580;28;20216;-84
2022/12/19 06:13:16;;;;;;;50.27;27.30;;;-2.80;99.90;;;;;;5015196;28;20186;-83
2022/12/19 06:15:43;;;;;;;52.13;29.13;;;-2.80;99.90;;;;;;5014348;28;20202;-83
2022/12/19 06:18:11;;;;;;;53.37;28.57;;;-2.80;99.90;;;;;;5011739;28;20264;-83
2022/12/19 06:20:40;;;;;;;54.43;28.33;;;-2.80;99.90;;;;;;5012870;28;20654;-83
2022/12/19 06:23:07;;;;;;;53.30;28.43;;;-2.80;99.90;;;;;;5012496;28;20216;-83
2022/12/19 06:25:34;;;;;;;57.00;30.07;;;-2.70;99.90;;;;;;5010929;28;20201;-83
2022/12/19 06:28:02;;;;;;;52.97;28.57;;;-2.70;99.90;;;;;;5012636;28;20234;-83
2022/12/19 06:30:28;;;;;;;54.77;29.83;;;-2.70;99.90;;;;;;5012402;28;20206;-82
2022/12/19 06:32:55;;;;;;;55.03;29.73;;;-2.70;99.90;;;;;;5009985;28;20552;-82
2022/12/19 06:35:23;;;;;;;59.80;30.57;;;-2.70;99.90;;;;;;5010946;28;20221;-83
2022/12/19 06:37:50;;;;;;;51.77;28.30;;;-2.60;99.90;;;;;;5012406;28;20203;-84
2022/12/19 06:42:21;;;;;;;55.97;31.53;;;-2.60;99.90;;;;;;5014320;28;20299;-84
2022/12/19 06:43:02;;;;;;;51.70;28.17;;;-2.60;99.90;;;;;;5010140;28;20197;-82
2022/12/19 06:45:30;;;;;;;55.07;29.83;;;-2.50;99.90;;;;;;5009098;28;20227;-82
2022/12/19 06:47:57;;;;;;;55.60;30.30;;;-2.60;99.90;;;;;;5008956;28;20234;-82
2022/12/19 06:50:25;;;;;;;60.60;30.20;;;-2.60;99.90;;;;;;5009537;28;20209;-82
2022/12/19 06:52:52;;;;;;;55.13;29.40;;;-2.60;99.90;;;;;;5009024;28;20230;-83
2022/12/19 06:55:18;;;;;;;57.00;29.47;;;-2.60;99.90;;;;;;5008964;28;20202;-81
2022/12/19 06:57:45;;;;;;;55.23;30.27;;;-2.50;99.90;;;;;;5013721;28;20202;-82
2022/12/19 07:00:13;;;;;;;58.30;30.00;;;-2.50;99.90;;;;;;5018615;28;20201;-82
2022/12/19 07:02:43;;;;;;;60.60;31.30;;;-2.40;99.90;;;;;;5010495;28;20202;-82
2022/12/19 07:05:12;;;;;;;55.33;29.57;;;-2.40;99.90;;;;;;5017181;28;20261;-83
2022/12/19 07:07:41;;;;;;;54.93;29.07;;;-2.30;99.90;;;;;;5013443;28;20227;-81
2022/12/19 07:10:09;;;;;;;54.47;28.70;;;-2.30;99.90;;;;;;5012615;28;20273;-83
2022/12/19 07:12:36;;;;;;;56.67;30.23;;;-2.20;99.90;;;;;;5013525;28;20195;-83
2022/12/19 07:15:03;;;;;;;56.07;29.97;;;-2.20;99.90;;;;;;5010653;28;20260;-82
2022/12/19 07:17:29;;;;;;;59.57;30.07;;;-2.20;99.90;;;;;;5006020;28;20206;-82
2022/12/19 07:19:57;;;;;;;54.77;30.80;;;-2.20;99.90;;;;;;5005749;28;20206;-80
2022/12/19 07:22:26;;;;;;;54.00;29.87;;;-2.20;99.90;;;;;;5006055;28;20198;-79
2022/12/19 07:24:54;;;;;;;51.80;29.00;;;-2.10;99.90;;;;;;5002398;28;20202;-79
2022/12/19 07:27:22;;;;;;;52.40;28.40;;;-2.10;99.90;;;;;;5001673;28;20703;-79
2022/12/19 07:29:49;;;;;;;54.47;30.20;;;-2.00;99.90;;;;;;5003746;28;20298;-79
2022/12/19 07:32:15;;;;;;;58.63;31.00;;;-2.10;99.90;;;;;;5002103;28;20253;-80
2022/12/19 07:34:42;;;;;;;54.27;29.20;;;-2.00;99.90;;;;;;5002054;28;20238;-80
2022/12/19 07:37:09;;;;;;;57.83;30.37;;;-2.00;99.90;;;;;;5001073;28;20199;-80
2022/12/19 07:39:35;;;;;;;58.93;30.63;;;-2.00;99.90;;;;;;5000598;28;20232;-80
2022/12/19 07:42:03;;;;;;;55.63;30.03;;;-2.00;99.90;;;;;;4999842;28;20273;-79
2022/12/19 07:44:30;;;;;;;54.17;30.20;;;-2.00;99.90;;;;;;5003994;28;20247;-84
2022/12/19 07:46:57;;;;;;;54.97;28.83;;;-2.00;99.90;;;;;;5001649;28;20616;-80
2022/12/19 07:49:24;;;;;;;53.80;28.60;;;-2.00;99.90;;;;;;4998442;28;20572;-79
2022/12/19 07:51:53;;;;;;;53.43;29.13;;;-2.00;99.90;;;;;;4999154;28;20247;-79
2022/12/19 07:54:19;;;;;;;55.73;29.57;;;-1.90;99.90;;;;;;4998180;28;20258;-80
2022/12/19 07:56:46;;;;;;;53.73;29.47;;;-1.80;99.90;;;;;;5000503;28;20253;-80
2022/12/19 07:59:14;;;;;;;52.43;28.87;;;-1.80;99.90;;;;;;5004637;28;20230;-80
2022/12/19 08:01:40;;;;;;;50.37;28.37;;;-1.70;99.90;;;;;;4998655;28;20209;-79
2022/12/19 08:04:07;;;;;;;54.33;28.60;;;-1.70;99.90;;;;;;4997686;28;20588;-79
2022/12/19 08:06:34;;;;;;;53.63;30.10;;;-1.60;99.90;;;;;;4998416;28;20203;-81
2022/12/19 08:09:00;;;;;;;47.90;28.07;;;-1.50;99.90;;;;;;4997276;28;20266;-78
2022/12/19 08:11:28;;;;;;;54.23;29.03;;;-1.50;99.90;;;;;;4996797;28;20196;-79
2022/12/19 08:13:56;;;;;;;51.23;28.23;;;-1.50;99.90;;;;;;4997873;28;20290;-78
2022/12/19 08:16:26;;;;;;;50.87;27.93;;;-1.40;99.90;;;;;;4997947;28;20600;-77
2022/12/19 08:18:54;;;;;;;54.03;28.53;;;-1.30;99.90;;;;;;4998227;28;20205;-77
2022/12/19 08:21:21;;;;;;;51.87;28.50;;;-1.30;99.90;;;;;;4998490;28;20238;-77
2022/12/19 08:23:48;;;;;;;52.93;28.00;;;-1.20;99.90;;;;;;4997677;28;20196;-77
2022/12/19 08:26:23;;;;;;;47.23;28.03;;;-1.30;99.90;;;;;;4998149;28;20208;-77
2022/12/19 08:28:50;;;;;;;50.43;29.10;;;-1.20;99.90;;;;;;4998664;28;20253;-77
2022/12/19 08:31:18;;;;;;;53.23;28.07;;;-1.10;99.90;;;;;;4999590;28;20223;-78
2022/12/19 08:33:47;;;;;;;53.43;28.40;;;-1.10;99.90;;;;;;5000535;28;20195;-78
2022/12/19 08:36:15;;;;;;;53.07;29.27;;;-1.00;99.90;;;;;;5002794;28;20267;-79
2022/12/19 08:38:42;;;;;;;46.87;27.53;;;-1.20;99.90;;;;;;5004893;28;20271;-80
2022/12/19 08:41:10;;;;;;;52.70;28.57;;;-1.20;99.90;;;;;;5009530;28;20254;-82
2022/12/19 08:43:37;;;;;;;49.93;27.03;;;-1.00;99.90;;;;;;5006849;28;20206;-77
2022/12/19 08:46:03;;;;;;;48.13;27.00;;;-0.90;99.90;;;;;;4998117;28;20286;-78
2022/12/19 08:48:33;;;;;;;48.73;28.10;;;-0.90;99.90;;;;;;4997924;28;20254;-79
2022/12/19 08:51:03;;;;;;;52.10;28.30;;;-0.90;99.90;;;;;;4997018;28;20196;-78
2022/12/19 08:53:33;;;;;;;50.40;27.30;;;-0.90;99.90;;;;;;4996915;28;20200;-78
2022/12/19 08:56:01;;;;;;;50.37;27.83;;;-1.10;99.90;;;;;;4997388;28;20322;-78
2022/12/19 08:58:29;;;;;;;46.27;27.53;;;-0.90;99.90;;;;;;4996584;28;20262;-78
2022/12/19 09:00:58;;;;;;;49.57;27.77;;;-0.90;99.90;;;;;;4995269;28;20254;-78
2022/12/19 09:03:25;;;;;;;50.43;27.27;;;-0.80;99.90;;;;;;4995270;28;20199;-78
2022/12/19 09:05:56;;;;;;;49.20;27.97;;;-0.60;99.90;;;;;;4995162;28;20199;-78
2022/12/19 09:08:25;;;;;;;53.60;28.23;;;-0.60;99.90;;;;;;4995370;28;20206;-78
2022/12/19 09:10:57;;;;;;;50.23;27.73;;;-0.60;99.90;;;;;;4995594;28;20200;-78
2022/12/19 09:13:24;;;;;;;47.53;27.00;;;-0.40;99.90;;;;;;4995545;28;20268;-78
2022/12/19 09:15:59;;;;;;;48.00;27.23;;;-0.40;99.90;;;;;;4995954;28;20214;-78
2022/12/19 09:18:26;;;;;;;49.23;27.73;;;-0.30;99.90;;;;;;4995631;28;20199;-77
2022/12/19 09:20:53;;;;;;;46.53;26.80;;;-0.30;99.90;;;;;;4996150;28;20196;-77
2022/12/19 09:23:20;;;;;;;53.33;28.80;;;-0.20;99.90;;;;;;5000424;28;20254;-81
2022/12/19 09:25:49;;;;;;;49.30;27.57;;;-0.10;99.90;;;;;;5003663;28;20204;-82
2022/12/19 09:28:16;;;;;;;48.63;27.37;;;0.00;99.90;;;;;;4999957;28;20211;-83
2022/12/19 09:30:42;;;;;;;49.83;27.70;;;0.20;99.90;;;;;;5000672;28;20223;-77
2022/12/19 09:33:09;;;;;;;46.97;26.50;;;0.30;99.90;;;;;;5003052;28;20199;-84
2022/12/19 09:35:36;;;;;;;46.43;26.93;;;0.40;99.90;;;;;;5007063;28;20204;-82
2022/12/19 09:38:03;;;;;;;47.23;26.63;;;0.60;99.90;;;;;;5001595;28;20286;-80
2022/12/19 09:40:46;;;;;;;44.87;26.20;;;0.60;99.90;;;;;;4996546;28;20713;-79
2022/12/19 09:43:25;;;;;;;47.03;26.97;;;0.60;99.90;;;;;;4997592;28;20196;-79
2022/12/19 09:46:01;;;;;;;48.93;26.97;;;0.70;99.90;;;;;;5000798;28;20196;-82
2022/12/19 09:48:27;;;;;;;47.20;26.80;;;0.90;99.90;;;;;;5003296;28;20729;-79
2022/12/19 09:50:59;;;;;;;46.77;26.73;;;1.00;99.90;;;;;;4999367;28;20227;-81
2022/12/19 09:53:31;;;;;;;48.23;28.37;;;1.10;99.90;;;;;;4997042;28;20262;-77
2022/12/19 09:56:00;;;;;;;46.20;27.57;;;1.10;99.90;;;;;;4995261;28;20204;-78
2022/12/19 09:58:32;;;;;;;43.17;26.63;;;1.30;99.90;;;;;;4997076;28;20603;-79
2022/12/19 10:01:04;;;;;;;44.67;27.93;;;1.10;99.90;;;;;;4998597;28;20603;-80
2022/12/19 10:03:35;;;;;;;45.97;27.47;;;1.30;99.90;;;;;;4999482;28;20223;-81
2022/12/19 10:06:07;;;;;;;44.90;26.47;;;1.50;99.90;;;;;;4997448;28;20722;-80
2022/12/19 10:08:37;;;;;;;46.87;28.03;;;1.30;99.90;;;;;;5001308;28;20183;-80
2022/12/19 10:11:19;;;;;;;45.87;27.27;;;1.30;99.90;;;;;;4996172;28;20227;-78
2022/12/19 10:14:02;;;;;;;48.87;28.63;;;1.10;99.90;;;;;;4997529;28;20231;-79
2022/12/19 10:16:43;;;;;;;47.80;26.63;;;1.30;99.90;;;;;;4985162;28;20199;-82
2022/12/19 10:19:14;;;;;;;48.13;27.70;;;1.20;99.90;;;;;;4993921;28;20204;-80
2022/12/19 10:21:48;;;;;;;46.80;26.97;;;0.80;99.90;;;;;;5003068;28;20199;-80
2022/12/19 10:24:37;;;;;;;49.00;27.43;;;1.10;99.90;;;;;;5005470;28;20200;-83
2022/12/19 10:27:15;;;;;;;46.93;26.67;;;1.40;99.90;;;;;;5006983;28;20250;-84
2022/12/19 10:29:57;;;;;;;47.43;26.77;;;1.60;99.90;;;;;;5007953;28;20227;-84
2022/12/19 10:32:35;;;;;;;44.87;26.83;;;1.70;99.90;;;;;;5009893;28;20230;-82
2022/12/19 10:35:13;;;;;;;43.23;25.93;;;1.70;99.90;;;;;;5013102;28;20213;-86
2022/12/19 10:37:46;;;;;;;50.33;28.43;;;1.70;99.90;;;;;;5015869;28;20238;-84
2022/12/19 10:40:20;;;;;;;42.20;26.77;;;1.70;99.90;;;;;;5017745;28;20263;-87
2022/12/19 10:42:52;;;;;;;45.90;26.73;;;1.60;99.90;;;;;;5253600;23;20229;-80
2022/12/19 10:45:26;;;;;;;45.93;28.10;;;1.60;99.90;;;;;;5019744;28;20188;-84
2022/12/19 10:47:56;;;;;;;46.20;26.30;;;1.70;99.90;;;;;;5013068;28;20227;-81
2022/12/19 10:50:25;;;;;;;47.27;27.50;;;1.80;99.90;;;;;;5009695;28;20228;-82
2022/12/19 10:52:56;;;;;;;46.13;27.07;;;1.90;99.90;;;;;;5015395;28;20204;-82
2022/12/19 10:55:38;;;;;;;50.67;28.43;;;2.00;99.90;;;;;;5019402;28;20220;-86
2022/12/19 10:58:22;;;;;;;44.63;27.50;;;2.20;99.90;;;;;;5020663;28;20263;-85
2022/12/19 11:01:05;;;;;;;42.23;25.63;;;2.30;99.90;;;;;;5007621;28;20300;-79
2022/12/19 11:03:33;;;;;;;50.17;28.17;;;2.40;99.90;;;;;;5002092;28;20297;-80
2022/12/19 11:06:01;;;;;;;46.27;26.10;;;2.50;99.90;;;;;;5003551;28;20838;-80
2022/12/19 11:08:31;;;;;;;43.03;26.83;;;2.70;99.90;;;;;;5001156;28;20647;-80
2022/12/19 11:11:11;;;;;;;42.10;26.00;;;3.10;99.90;;;;;;5000270;28;20253;-80
2022/12/19 11:13:43;;;;;;;42.17;25.70;;;3.40;99.90;;;;;;4999186;28;20656;-81
2022/12/19 11:16:12;;;;;;;40.47;26.60;;;3.70;99.90;;;;;;4996520;28;20277;-81
2022/12/19 11:18:40;;;;;;;42.47;25.83;;;3.90;99.90;;;;;;4996554;28;20269;-83
2022/12/19 11:21:15;;;;;;;40.07;25.10;;;4.10;99.90;;;;;;4997893;28;20207;-87
2022/12/19 11:23:50;;;;;;;38.10;24.23;;;4.20;99.90;;;;;;4997710;28;20658;-82
2022/12/19 11:26:31;;;;;;;39.63;24.30;;;3.90;99.90;;;;;;4996903;28;20286;-87
2022/12/19 11:29:02;;;;;;;37.93;25.80;;;4.10;99.90;;;;;;4995521;28;20246;-81
2022/12/19 11:31:31;;;;;;;38.90;24.77;;;4.30;99.90;;;;;;4996202;28;20261;-77
2022/12/19 11:34:04;;;;;;;40.43;25.40;;;4.10;99.90;;;;;;4999067;28;20203;-83
2022/12/19 11:36:37;;;;;;;41.23;25.00;;;4.20;99.90;;;;;;4998763;28;20258;-78
2022/12/19 11:39:08;;;;;;;39.07;23.90;;;4.40;99.90;;;;;;4995804;28;20200;-78
2022/12/19 11:41:41;;;;;;;35.10;23.77;;;4.60;99.90;;;;;;4995699;28;20611;-79
2022/12/19 11:44:17;;;;;;;35.93;23.00;;;4.60;99.90;;;;;;4995345;28;20235;-82
2022/12/19 11:46:50;;;;;;;33.43;23.33;;;4.50;99.90;;;;;;4995987;28;20199;-76
2022/12/19 11:49:26;;;;;;;34.97;22.87;;;4.30;99.90;;;;;;4996279;28;20246;-76
2022/12/19 11:51:57;;;;;;;34.33;23.33;;;4.10;99.90;;;;;;4996805;28;20254;-76
2022/12/19 11:54:29;;;;;;;35.10;23.07;;;4.00;99.90;;;;;;4997209;28;20249;-77
2022/12/19 11:56:56;;;;;;;33.30;21.97;;;4.00;99.90;;;;;;4998175;28;20265;-77
2022/12/19 11:59:30;;;;;;;36.03;22.60;;;4.10;99.90;;;;;;4996843;28;20206;-77
2022/12/19 12:02:32;;;;;;;38.03;23.80;;;3.90;99.90;;;;;;4998066;28;20226;-77
2022/12/19 12:05:19;;;;;;;34.80;22.00;;;4.00;99.90;;;;;;4974548;28;20309;-76
2022/12/19 12:07:54;;;;;;;35.67;22.00;;;4.10;99.90;;;;;;4997679;28;20651;-76
2022/12/19 12:10:22;;;;;;;36.70;22.07;;;3.90;99.90;;;;;;5003469;28;20227;-79
2022/12/19 12:13:03;;;;;;;32.83;22.00;;;4.20;99.90;;;;;;5005766;28;20199;-78
2022/12/19 12:15:48;;;;;;;35.30;21.00;;;4.10;99.90;;;;;;5007944;28;20234;-85
2022/12/19 12:18:28;;;;;;;33.73;21.47;;;4.40;99.90;;;;;;4995772;28;20207;-86
2022/12/19 12:21:04;;;;;;;29.63;19.67;;;4.40;99.90;;;;;;4994843;28;20207;-80
2022/12/19 12:23:36;;;;;;;35.50;23.00;;;4.40;99.90;;;;;;4995873;28;20250;-78
2022/12/19 12:26:08;;;;;;;32.93;22.30;;;4.10;99.90;;;;;;4997276;28;20195;-77
2022/12/19 12:28:59;;;;;;;29.80;20.93;;;4.20;99.90;;;;;;4996875;28;20214;-78
2022/12/19 12:31:35;;;;;;;34.20;21.10;;;4.30;99.90;;;;;;4995085;28;20278;-78
2022/12/19 12:34:17;;;;;;;34.30;21.73;;;4.30;99.90;;;;;;4994844;28;20214;-79
2022/12/19 12:36:53;;;;;;;31.97;21.47;;;4.20;99.90;;;;;;4994810;28;20627;-79
2022/12/19 12:39:25;;;;;;;29.90;20.60;;;4.30;99.90;;;;;;4994927;28;20250;-80
2022/12/19 12:42:05;;;;;;;30.80;21.10;;;4.40;99.90;;;;;;4994791;28;20203;-79
2022/12/19 12:44:35;;;;;;;32.33;20.93;;;4.30;99.90;;;;;;4994681;28;20231;-80
2022/12/19 12:47:09;;;;;;;35.40;22.03;;;4.40;99.90;;;;;;4994755;28;20246;-79
2022/12/19 12:49:41;;;;;;;34.77;22.13;;;4.60;99.90;;;;;;4994700;28;20265;-78
2022/12/19 12:52:13;;;;;;;29.93;20.43;;;4.80;99.90;;;;;;4994359;28;20607;-79